createdAt,value
2022-11-21T00:00:58.532Z,86.60
2022-11-21T00:03:27.176Z,86.30
2022-11-21T00:05:55.579Z,86.50
2022-11-21T00:08:24.040Z,86.40
2022-11-21T00:10:52.579Z,86.70
2022-11-21T00:13:21.773Z,86.50
2022-11-21T00:15:50.075Z,86.40
2022-11-21T00:18:19.919Z,86.30
2022-11-21T00:20:48.300Z,87.00
2022-11-21T00:23:16.727Z,86.60
2022-11-21T00:25:45.113Z,86.40
2022-11-21T00:28:13.577Z,86.20
2022-11-21T00:30:42.242Z,86.20
2022-11-21T00:33:10.684Z,86.70
2022-11-21T00:35:40.646Z,86.80
2022-11-21T00:38:09.071Z,87.60
2022-11-21T00:40:37.575Z,88.20
2022-11-21T00:43:05.914Z,88.70
2022-11-21T00:45:34.312Z,88.60
2022-11-21T00:48:02.738Z,89.00
2022-11-21T00:50:31.182Z,89.30
2022-11-21T00:53:00.988Z,90.10
2022-11-21T00:55:29.337Z,90.10
2022-11-21T00:57:57.639Z,90.30
2022-11-21T01:00:26.070Z,90.30
2022-11-21T01:02:54.463Z,90.30
2022-11-21T01:05:22.802Z,90.10
2022-11-21T01:07:51.316Z,90.20
2022-11-21T01:10:21.252Z,90.50
2022-11-21T01:12:49.588Z,90.90
2022-11-21T01:15:18.096Z,91.00
2022-11-21T01:17:46.885Z,91.30
2022-11-21T01:20:16.312Z,91.10
2022-11-21T01:22:44.762Z,90.80
2022-11-21T01:25:13.611Z,90.40
2022-11-21T01:27:43.598Z,90.30
2022-11-21T01:30:14.917Z,90.30
2022-11-21T01:32:43.609Z,90.70
2022-11-21T01:35:12.154Z,90.90
2022-11-21T01:37:40.797Z,91.60
2022-11-21T01:40:10.847Z,91.50
2022-11-21T01:42:58.712Z,91.50
2022-11-21T01:45:56.637Z,91.50
2022-11-21T01:48:30.572Z,91.50
2022-11-21T01:51:03.255Z,91.30
2022-11-21T01:53:32.657Z,91.60
2022-11-21T01:56:01.671Z,91.50
2022-11-21T01:58:33.264Z,91.60
2022-11-21T02:01:03.199Z,91.60
2022-11-21T02:03:35.859Z,91.60
2022-11-21T02:06:04.944Z,91.60
2022-11-21T02:08:33.788Z,91.60
2022-11-21T02:11:13.470Z,91.60
2022-11-21T02:13:43.532Z,91.70
2022-11-21T02:16:12.670Z,91.90
2022-11-21T02:18:41.532Z,91.50
2022-11-21T02:21:17.805Z,92.00
2022-11-21T02:24:00.064Z,92.20
2022-11-21T02:26:31.584Z,91.80
2022-11-21T02:29:00.530Z,91.90
2022-11-21T02:31:29.236Z,91.60
2022-11-21T02:33:57.871Z,91.60
2022-11-21T02:36:38.456Z,91.50
2022-11-21T02:39:09.243Z,91.60
2022-11-21T02:41:43.654Z,91.60
2022-11-21T02:44:22.697Z,91.30
2022-11-21T02:46:53.060Z,90.90
2022-11-21T02:49:31.723Z,90.40
2022-11-21T02:52:00.573Z,90.30
2022-11-21T02:54:29.503Z,90.10
2022-11-21T02:56:59.812Z,89.20
2022-11-21T02:59:28.588Z,89.60
2022-11-21T03:02:00.758Z,89.70
2022-11-21T03:04:29.935Z,89.70
2022-11-21T03:06:58.984Z,88.70
2022-11-21T03:09:28.113Z,88.50
2022-11-21T03:11:56.814Z,88.20
2022-11-21T03:14:27.366Z,88.30
2022-11-21T03:16:56.412Z,87.70
2022-11-21T03:19:25.099Z,88.20
2022-11-21T03:21:53.695Z,87.80
2022-11-21T03:24:22.443Z,88.20
2022-11-21T03:26:51.499Z,89.00
2022-11-21T03:29:20.034Z,88.00
2022-11-21T03:31:50.131Z,86.40
2022-11-21T03:34:19.091Z,86.70
2022-11-21T03:36:47.593Z,87.30
2022-11-21T03:39:15.987Z,87.30
2022-11-21T03:41:44.426Z,87.20
2022-11-21T03:44:13.442Z,87.20
2022-11-21T03:46:43.088Z,88.00
2022-11-21T03:49:13.440Z,88.00
2022-11-21T03:51:41.847Z,88.70
2022-11-21T03:54:10.673Z,89.00
2022-11-21T03:56:40.005Z,89.00
2022-11-21T03:59:08.600Z,88.40
2022-11-21T04:01:37.349Z,89.00
2022-11-21T04:04:06.063Z,88.60
2022-11-21T04:06:35.791Z,88.30
2022-11-21T04:09:04.580Z,88.00
2022-11-21T04:11:32.903Z,88.20
2022-11-21T04:14:01.217Z,88.60
2022-11-21T04:16:29.605Z,88.50
2022-11-21T04:18:58.052Z,88.10
2022-11-21T04:21:26.418Z,88.60
2022-11-21T04:23:56.603Z,87.90
2022-11-21T04:26:24.952Z,87.40
2022-11-21T04:28:53.342Z,87.20
2022-11-21T04:31:21.667Z,86.90
2022-11-21T04:33:50.041Z,88.00
2022-11-21T04:36:18.554Z,87.40
2022-11-21T04:38:46.853Z,87.70
2022-11-21T04:41:16.627Z,87.70
2022-11-21T04:43:45.055Z,88.00
2022-11-21T04:46:13.391Z,88.10
2022-11-21T04:48:41.833Z,88.60
2022-11-21T04:51:10.384Z,89.10
2022-11-21T04:53:42.763Z,88.70
2022-11-21T04:56:11.640Z,88.60
2022-11-21T04:58:41.470Z,88.20
2022-11-21T05:01:10.454Z,87.70
2022-11-21T05:03:38.904Z,87.50
2022-11-21T05:06:07.336Z,87.70
2022-11-21T05:08:35.694Z,87.60
2022-11-21T05:11:21.381Z,87.80
2022-11-21T05:13:53.634Z,87.30
2022-11-21T05:16:22.099Z,87.50
2022-11-21T05:18:50.516Z,87.30
2022-11-21T05:21:18.955Z,87.90
2022-11-21T05:23:47.248Z,87.90
2022-11-21T05:26:15.930Z,88.50
2022-11-21T05:28:44.237Z,88.20
2022-11-21T05:31:14.010Z,86.90
2022-11-21T05:33:42.452Z,87.30
2022-11-21T05:36:10.695Z,87.20
2022-11-21T05:38:39.026Z,87.20
2022-11-21T05:41:07.598Z,86.70
2022-11-21T05:43:47.096Z,85.80
2022-11-21T05:46:17.893Z,85.60
2022-11-21T05:48:46.380Z,85.40
2022-11-21T05:51:15.137Z,85.70
2022-11-21T05:53:43.670Z,85.80
2022-11-21T05:56:12.794Z,85.50
2022-11-21T05:58:41.522Z,85.80
2022-11-21T06:01:10.846Z,87.10
2022-11-21T06:03:40.229Z,87.80
2022-11-21T06:06:09.292Z,89.30
2022-11-21T06:08:38.496Z,89.70
2022-11-21T06:11:07.599Z,89.00
2022-11-21T06:13:36.690Z,88.80
2022-11-21T06:16:06.195Z,87.40
2022-11-21T06:18:36.300Z,87.00
2022-11-21T06:21:07.685Z,88.20
2022-11-21T06:23:36.681Z,88.50
2022-11-21T06:26:06.413Z,88.40
2022-11-21T06:28:35.462Z,87.90
2022-11-21T06:31:04.331Z,87.60
2022-11-21T06:33:32.735Z,88.20
2022-11-21T06:36:02.763Z,87.90
2022-11-21T06:38:32.812Z,87.80
2022-11-21T06:41:05.135Z,88.40
2022-11-21T06:43:33.636Z,88.60
2022-11-21T06:46:03.461Z,88.40
2022-11-21T06:48:32.386Z,88.20
2022-11-21T06:51:05.587Z,87.70
2022-11-21T06:53:35.690Z,87.20
2022-11-21T06:56:04.444Z,87.50
2022-11-21T06:58:33.038Z,86.70
2022-11-21T07:01:05.058Z,87.70
2022-11-21T07:03:33.695Z,86.80
2022-11-21T07:06:02.860Z,86.90
2022-11-21T07:08:32.196Z,86.90
2022-11-21T07:11:24.090Z,87.70
2022-11-21T07:13:53.992Z,87.60
2022-11-21T07:16:22.467Z,87.30
2022-11-21T07:18:50.798Z,87.30
2022-11-21T07:21:19.099Z,87.20
2022-11-21T07:23:47.854Z,86.60
2022-11-21T07:26:17.612Z,86.70
2022-11-21T07:28:45.903Z,86.90
2022-11-21T07:31:14.548Z,86.90
2022-11-21T07:33:44.428Z,86.70
2022-11-21T07:36:13.237Z,86.90
2022-11-21T07:38:42.315Z,87.00
2022-11-21T07:41:10.863Z,86.90
2022-11-21T07:43:40.536Z,85.70
2022-11-21T07:46:08.928Z,85.90
2022-11-21T07:48:37.272Z,85.60
2022-11-21T07:51:06.611Z,86.20
2022-11-21T07:53:35.018Z,85.80
2022-11-21T07:56:04.868Z,85.40
2022-11-21T07:58:33.363Z,85.10
2022-11-21T08:01:05.869Z,85.10
2022-11-21T08:03:34.623Z,85.10
2022-11-21T08:06:03.768Z,85.20
2022-11-21T08:08:32.483Z,85.00
2022-11-21T08:11:05.021Z,83.80
2022-11-21T08:13:33.507Z,82.70
2022-11-21T08:16:05.083Z,82.30
2022-11-21T08:18:33.739Z,80.80
2022-11-21T08:21:02.755Z,80.20
2022-11-21T08:23:31.684Z,79.50
2022-11-21T08:26:00.482Z,79.10
2022-11-21T08:28:29.252Z,76.90
2022-11-21T08:30:57.757Z,77.40
2022-11-21T08:33:27.803Z,78.50
2022-11-21T08:35:56.233Z,77.40
2022-11-21T08:38:24.709Z,76.00
2022-11-21T08:41:17.617Z,76.10
2022-11-21T08:43:46.499Z,77.00
2022-11-21T08:46:15.060Z,77.00
2022-11-21T08:48:44.762Z,74.40
2022-11-21T08:51:13.282Z,74.80
2022-11-21T08:53:41.838Z,75.00
2022-11-21T08:56:10.335Z,73.90
2022-11-21T08:58:38.694Z,72.80
2022-11-21T09:01:07.023Z,70.80
2022-11-21T09:03:35.761Z,70.70
2022-11-21T09:06:05.824Z,69.70
2022-11-21T09:08:34.565Z,69.20
2022-11-21T09:11:05.650Z,70.00
2022-11-21T09:13:34.095Z,72.40
2022-11-21T09:16:20.738Z,72.60
2022-11-21T09:18:49.649Z,72.20
2022-11-21T09:21:20.301Z,72.90
2022-11-21T09:23:49.161Z,73.20
2022-11-21T09:26:17.504Z,73.20
2022-11-21T09:28:47.017Z,74.10
2022-11-21T09:31:15.509Z,74.70
2022-11-21T09:33:43.833Z,75.50
2022-11-21T09:36:12.126Z,75.60
2022-11-21T09:38:41.938Z,76.00
2022-11-21T09:41:34.508Z,76.40
2022-11-21T09:44:08.740Z,73.70
2022-11-21T09:46:40.930Z,72.90
2022-11-21T09:49:14.096Z,71.40
2022-11-21T09:51:43.885Z,67.60
2022-11-21T09:54:16.606Z,66.60
2022-11-21T09:56:46.959Z,66.70
2022-11-21T09:59:23.521Z,62.60
2022-11-21T10:01:52.282Z,65.40
2022-11-21T10:04:21.297Z,64.50
2022-11-21T10:06:54.725Z,64.80
2022-11-21T10:09:29.071Z,66.20
2022-11-21T10:12:18.785Z,66.30
2022-11-21T10:14:52.730Z,66.00
2022-11-21T10:17:23.737Z,67.90
2022-11-21T10:19:57.993Z,68.90
2022-11-21T10:22:41.155Z,68.80
2022-11-21T10:25:14.239Z,67.90
2022-11-21T10:31:55.930Z,67.30
2022-11-21T10:34:27.342Z,68.90
2022-11-21T11:09:24.360Z,63.10
2022-11-21T11:11:53.153Z,63.70
2022-11-21T11:14:29.999Z,61.70
2022-11-21T11:17:00.167Z,60.50
2022-11-21T11:19:38.451Z,60.00
2022-11-21T11:22:27.585Z,61.20
2022-11-21T11:25:00.163Z,62.80
2022-11-21T11:27:30.209Z,60.50
2022-11-21T11:29:58.572Z,60.90
2022-11-21T11:32:28.725Z,59.30
2022-11-21T11:35:00.273Z,59.10
2022-11-21T11:37:39.886Z,60.70
2022-11-21T11:40:16.216Z,59.50
2022-11-21T11:43:17.338Z,59.80
2022-11-21T11:46:10.247Z,60.10
2022-11-21T11:48:56.627Z,60.80
2022-11-21T11:51:30.278Z,61.20
2022-11-21T11:54:03.641Z,59.60
2022-11-21T11:56:34.162Z,59.50
2022-11-21T11:59:04.440Z,59.70
2022-11-21T12:01:36.100Z,59.10
2022-11-21T12:04:07.861Z,58.80
2022-11-21T12:07:31.433Z,59.80
2022-11-21T12:09:32.053Z,61.90
2022-11-21T12:12:09.414Z,58.60
2022-11-21T12:15:00.720Z,57.30
2022-11-21T12:17:33.758Z,58.40
2022-11-21T12:20:04.740Z,61.10
2022-11-21T12:22:33.074Z,58.90
2022-11-21T12:25:01.646Z,59.10
2022-11-21T12:27:32.399Z,57.80
2022-11-21T12:30:10.183Z,56.50
2022-11-21T12:32:55.704Z,55.60
2022-11-21T12:35:34.208Z,56.80
2022-11-21T12:38:09.494Z,54.70
2022-11-21T12:40:42.079Z,56.60
2022-11-21T12:43:17.899Z,56.10
2022-11-21T12:45:48.484Z,54.80
2022-11-21T12:48:38.861Z,55.60
2022-11-21T12:51:34.606Z,55.10
2022-11-21T12:54:25.673Z,54.70
2022-11-21T12:56:58.038Z,53.60
2022-11-21T12:59:27.276Z,52.70
2022-11-21T13:02:00.172Z,52.80
2022-11-21T13:04:30.172Z,52.70
2022-11-21T13:07:00.441Z,52.80
2022-11-21T13:09:30.829Z,55.50
2022-11-21T13:12:03.377Z,55.10
2022-11-21T13:14:37.224Z,53.50
2022-11-21T13:17:10.543Z,55.10
2022-11-21T13:19:43.646Z,54.70
2022-11-21T13:22:26.993Z,54.40
2022-11-21T13:24:58.360Z,54.50
2022-11-21T13:27:36.721Z,54.00
2022-11-21T13:30:23.347Z,54.30
2022-11-21T13:32:52.269Z,55.00
2022-11-21T13:35:39.378Z,53.50
2022-11-21T13:38:08.770Z,53.60
2022-11-21T13:40:39.731Z,50.90
2022-11-21T13:46:02.925Z,52.30
2022-11-21T13:48:49.082Z,50.60
2022-11-21T13:51:32.382Z,50.20
2022-11-21T13:54:21.216Z,51.80
2022-11-21T13:57:00.580Z,52.10
2022-11-21T13:59:40.482Z,51.30
2022-11-21T14:02:32.999Z,50.80
2022-11-21T14:05:20.891Z,51.40
2022-11-21T14:07:49.621Z,49.80
2022-11-21T14:11:07.538Z,52.20
2022-11-21T14:24:05.518Z,52.40
2022-11-21T14:26:35.878Z,53.40
2022-11-21T14:29:17.882Z,52.50
2022-11-21T14:31:47.270Z,52.10
2022-11-21T14:34:24.845Z,52.40
2022-11-21T14:36:53.628Z,52.80
2022-11-21T14:39:44.133Z,52.60
2022-11-21T14:42:15.066Z,53.00
2022-11-21T14:44:43.651Z,52.50
2022-11-21T14:47:19.615Z,52.00
2022-11-21T14:49:52.394Z,53.10
2022-11-21T14:52:27.820Z,53.20
2022-11-21T14:57:47.099Z,53.50
2022-11-21T15:00:43.156Z,54.40
2022-11-21T15:03:05.097Z,54.80
2022-11-21T15:06:00.813Z,54.40
2022-11-21T15:09:02.878Z,53.60
2022-11-21T15:11:14.103Z,53.60
2022-11-21T15:14:12.415Z,53.60
2022-11-21T15:16:31.897Z,53.60
2022-11-21T15:19:00.400Z,53.50
2022-11-21T15:21:28.989Z,53.30
2022-11-21T15:23:57.364Z,54.20
2022-11-21T15:26:31.699Z,54.20
2022-11-21T15:29:00.998Z,53.30
2022-11-21T15:31:29.604Z,53.20
2022-11-21T15:37:03.539Z,53.80
2022-11-21T15:39:32.240Z,54.10
2022-11-21T15:42:15.453Z,54.60
2022-11-21T15:44:59.453Z,54.30
2022-11-21T15:47:28.665Z,52.30
2022-11-21T15:49:57.141Z,52.80
2022-11-21T15:52:25.665Z,52.70
2022-11-21T15:54:54.118Z,52.60
2022-11-21T15:57:22.964Z,51.30
2022-11-21T15:59:53.188Z,51.30
2022-11-21T16:02:22.916Z,51.70
2022-11-21T16:04:51.475Z,52.00
2022-11-21T16:07:19.904Z,51.30
2022-11-21T16:09:48.432Z,51.30
2022-11-21T16:12:16.902Z,51.50
2022-11-21T16:14:45.319Z,51.10
2022-11-21T16:17:14.458Z,51.70
2022-11-21T16:19:44.240Z,51.60
2022-11-21T16:22:12.852Z,51.50
2022-11-21T16:24:41.344Z,51.40
2022-11-21T16:27:09.868Z,52.90
2022-11-21T16:29:38.204Z,53.90
2022-11-21T16:32:06.745Z,54.00
2022-11-21T16:34:35.105Z,55.30
2022-11-21T16:37:07.431Z,55.70
2022-11-21T16:39:36.262Z,55.30
2022-11-21T16:42:04.732Z,55.10
2022-11-21T16:44:33.263Z,56.80
2022-11-21T16:47:06.795Z,57.70
2022-11-21T16:49:36.884Z,57.30
2022-11-21T16:52:06.667Z,57.70
2022-11-21T16:54:35.148Z,56.40
2022-11-21T16:57:03.565Z,56.70
2022-11-21T16:59:32.531Z,56.70
2022-11-21T17:02:01.231Z,56.80
2022-11-21T17:04:33.772Z,56.80
2022-11-21T17:07:02.574Z,57.40
2022-11-21T17:09:32.648Z,57.50
2022-11-21T17:12:01.157Z,58.00
2022-11-21T17:14:30.091Z,57.70
2022-11-21T17:17:01.498Z,57.70
2022-11-21T17:19:30.021Z,57.70
2022-11-21T17:22:00.404Z,57.50
2022-11-21T17:24:29.549Z,58.40
2022-11-21T17:27:01.041Z,57.50
2022-11-21T17:29:29.798Z,57.70
2022-11-21T17:31:58.487Z,56.80
2022-11-21T17:34:32.754Z,56.00
2022-11-21T17:37:01.692Z,57.00
2022-11-21T17:39:30.560Z,57.50
2022-11-21T17:42:01.582Z,57.70
2022-11-21T17:44:30.378Z,57.70
2022-11-21T17:47:02.030Z,57.70
2022-11-21T17:49:37.090Z,57.70
2022-11-21T17:52:06.706Z,57.70
2022-11-21T17:54:35.359Z,57.70
2022-11-21T17:57:05.254Z,58.60
2022-11-21T17:59:34.857Z,58.10
2022-11-21T18:02:03.530Z,57.70
2022-11-21T18:04:34.536Z,58.20
2022-11-21T18:07:03.257Z,57.70
2022-11-21T18:09:31.921Z,58.60
2022-11-21T18:12:00.485Z,58.60
2022-11-21T18:14:30.827Z,57.80
2022-11-21T18:17:00.040Z,58.20
2022-11-21T18:19:28.889Z,56.70
2022-11-21T18:21:58.043Z,54.60
2022-11-21T18:24:30.178Z,55.20
2022-11-21T18:26:58.924Z,56.40
2022-11-21T18:29:36.380Z,55.70
2022-11-21T18:32:07.582Z,54.80
2022-11-21T18:34:36.352Z,54.80
2022-11-21T18:37:04.760Z,55.10
2022-11-21T18:39:33.547Z,54.80
2022-11-21T18:42:02.155Z,53.70
2022-11-21T18:44:30.541Z,53.40
2022-11-21T18:46:59.091Z,51.40
2022-11-21T18:49:29.534Z,52.00
2022-11-21T18:51:58.333Z,51.00
2022-11-21T18:54:26.842Z,52.20
2022-11-21T18:56:57.106Z,52.10
2022-11-21T18:59:25.526Z,51.60
2022-11-21T19:01:53.945Z,53.40
2022-11-21T19:04:22.417Z,50.60
2022-11-21T19:06:52.216Z,51.50
2022-11-21T19:09:20.489Z,52.20
2022-11-21T19:11:49.032Z,51.00
2022-11-21T19:14:17.929Z,49.60
2022-11-21T19:16:46.444Z,49.60
2022-11-21T19:22:06.393Z,52.20
2022-11-21T19:24:35.209Z,52.60
2022-11-21T19:27:03.681Z,53.70
2022-11-21T19:29:33.485Z,53.70
2022-11-21T19:32:04.175Z,53.40
2022-11-21T19:34:33.150Z,53.30
2022-11-21T19:37:02.549Z,53.90
2022-11-21T19:39:32.661Z,52.90
2022-11-21T19:42:02.827Z,52.60
2022-11-21T19:44:31.562Z,51.70
2022-11-21T19:47:00.654Z,52.60
2022-11-21T19:49:29.656Z,52.60
2022-11-21T19:51:58.980Z,53.30
2022-11-21T19:54:28.121Z,53.10
2022-11-21T19:56:59.043Z,54.20
2022-11-21T19:59:28.508Z,52.70
2022-11-21T20:01:57.397Z,53.50
2022-11-21T20:04:26.390Z,53.70
2022-11-21T20:06:55.997Z,53.60
2022-11-21T20:09:24.962Z,54.40
2022-11-21T20:11:53.701Z,54.50
2022-11-21T20:14:24.101Z,54.80
2022-11-21T20:16:54.102Z,54.60
2022-11-21T20:19:24.224Z,54.50
2022-11-21T20:21:53.094Z,54.90
2022-11-21T20:24:22.106Z,55.10
2022-11-21T20:26:51.221Z,55.40
2022-11-21T20:29:20.374Z,56.60
2022-11-21T20:31:50.513Z,56.20
2022-11-21T20:34:19.493Z,55.80
2022-11-21T20:36:48.317Z,56.70
2022-11-21T20:39:18.027Z,57.30
2022-11-21T20:41:47.454Z,58.00
2022-11-21T20:47:08.843Z,59.70
2022-11-21T20:49:38.017Z,60.20
2022-11-21T20:53:43.918Z,61.00
2022-11-21T20:54:55.890Z,60.40
2022-11-21T20:57:25.804Z,60.20
2022-11-21T20:59:54.828Z,59.80
2022-11-21T21:02:24.747Z,60.60
2022-11-21T21:04:53.373Z,62.30
2022-11-21T21:07:22.496Z,63.50
2022-11-21T21:09:51.401Z,63.60
2022-11-21T21:12:21.089Z,62.20
2022-11-21T21:14:49.584Z,62.30
2022-11-21T21:17:18.206Z,63.90
2022-11-21T21:19:48.469Z,62.80
2022-11-21T21:22:17.011Z,63.90
2022-11-21T21:24:45.622Z,63.50
2022-11-21T21:27:14.064Z,64.30
2022-11-21T21:29:42.495Z,64.20
2022-11-21T21:32:11.128Z,64.50
2022-11-21T21:34:41.168Z,64.40
2022-11-21T21:37:11.321Z,64.20
2022-11-21T21:39:40.690Z,63.90
2022-11-21T21:42:09.848Z,64.40
2022-11-21T21:44:39.411Z,64.10
2022-11-21T21:47:11.307Z,64.00
2022-11-21T21:49:39.769Z,63.70
2022-11-21T21:52:08.351Z,63.50
2022-11-21T21:54:38.275Z,62.50
2022-11-21T21:57:06.830Z,62.80
2022-11-21T21:59:35.251Z,64.00
2022-11-21T22:02:03.780Z,65.00
2022-11-21T22:04:33.933Z,65.10
2022-11-21T22:07:03.551Z,64.40
2022-11-21T22:09:32.243Z,64.40
2022-11-21T22:12:02.297Z,65.20
2022-11-21T22:14:31.076Z,65.40
2022-11-21T22:16:59.823Z,65.40
2022-11-21T22:19:28.452Z,65.20
2022-11-21T22:21:57.609Z,64.90
2022-11-21T22:24:27.133Z,65.00
2022-11-21T22:26:56.619Z,64.10
2022-11-21T22:29:26.964Z,64.40
2022-11-21T22:31:55.644Z,64.70
2022-11-21T22:34:24.133Z,65.30
2022-11-21T22:36:52.852Z,65.40
2022-11-21T22:39:21.499Z,64.80
2022-11-21T22:41:50.075Z,65.10
2022-11-21T22:44:19.330Z,65.70
2022-11-21T22:46:49.173Z,65.30
2022-11-21T22:49:17.799Z,65.30
2022-11-21T22:51:46.293Z,65.10
2022-11-21T22:59:11.355Z,65.70
2022-11-21T23:51:48.012Z,67.90
2022-11-21T23:54:19.769Z,67.80
2022-11-21T23:56:49.724Z,67.00
2022-11-21T23:59:18.486Z,67.60
